CheckWX is a tool to help pilots better visualize weather data.  It is not intended as a substitute for an official pre-flight weather briefing.

04:41:16 UTC

KPUB TAF
Pueblo Memorial Airport
Pueblo, Colorado, USA
KPUB 222336Z 2300/2324 28012KT P6SM VCSH SCT040 BKN060 FM230400 34015G25KT P6SM -SHRA BKN035 OVC050 FM231000 31010KT P6SM FEW100 SCT200 FM231800 30014G24KT P6SM SCT100 SCT200

Mar-23@
00:00 UTC

Mar-23 @ 00:00 UTC

Mar-23@
04:00 UTC

Mar-23 @ 04:00 UTC

KPUB 222336Z 2300/2324 28012KT P6SM VCSH SCT040 BKN060

Expired

Wind
  • 280° at 12 KTS
Cloud Levels
  • Scattered at 4,000' AGL
  • Broken at 6,000' AGL

Mar-23@
04:00 UTC

Mar-23 @ 04:00 UTC

Mar-23@
10:00 UTC

Mar-23 @ 10:00 UTC

FM230400 34015G25KT P6SM -SHRA BKN035 OVC050

From

From Standard forecast or significant change

Wind
  • 340° at 15 KTS
  • {Gusting to 25 KTS
Conditions
Light Rain
Cloud Levels
  • Broken at 3,500' AGL
  • Overcast at 5,000' AGL

Mar-23@
10:00 UTC

Mar-23 @ 10:00 UTC

Mar-23@
18:00 UTC

Mar-23 @ 18:00 UTC

FM231000 31010KT P6SM FEW100 SCT200

From

From Standard forecast or significant change

Wind
  • 310° at 10 KTS
Cloud Levels
  • Few at 10,000' AGL
  • Scattered at 20,000' AGL

Mar-23@
18:00 UTC

Mar-23 @ 18:00 UTC

Mar-24@
00:00 UTC

Mar-24 @ 00:00 UTC

FM231800 30014G24KT P6SM SCT100 SCT200

From

From Standard forecast or significant change

Wind
  • 300° at 14 KTS
  • {Gusting to 24 KTS
Cloud Levels
  • Scattered at 10,000' AGL
  • Scattered at 20,000' AGL